Time;durP1;ratioP1;P1;durP2;ratioP2;P2;SDS_P1;SDS_P2;PMS_P1;PMS_P2;Temp;Humidity;BMP_temperature;BMP_pressure;BME280_temperature;BME280_humidity;BME280_pressure;Samples;Min_cycle;Max_cycle;Signal;HPM_P1;HPM_P2
2023/12/15 00:00:18;;;;;;;4.53;3.90;;;11.20;87.00;;;;;;5139294;27;21027;-64
2023/12/15 00:02:46;;;;;;;8.63;6.90;;;11.10;87.40;;;;;;5134299;27;20523;-64
2023/12/15 00:05:13;;;;;;;6.60;5.70;;;11.10;87.30;;;;;;5133995;27;20981;-64
2023/12/15 00:07:40;;;;;;;4.80;4.30;;;11.00;87.50;;;;;;5133971;27;20475;-64
2023/12/15 00:10:08;;;;;;;4.50;3.87;;;11.00;87.50;;;;;;5138315;27;20459;-64
2023/12/15 00:12:35;;;;;;;6.20;4.13;;;11.00;87.80;;;;;;5151260;27;20453;-64
2023/12/15 00:15:02;;;;;;;6.00;4.57;;;11.00;87.70;;;;;;5151029;27;20436;-64
2023/12/15 00:17:29;;;;;;;7.00;5.03;;;11.00;87.50;;;;;;5151499;27;20446;-64
2023/12/15 00:19:57;;;;;;;9.23;5.23;;;11.00;87.30;;;;;;5142684;27;20496;-63
2023/12/15 00:22:24;;;;;;;3.93;3.53;;;11.00;87.20;;;;;;5139825;27;20439;-65
2023/12/15 00:24:51;;;;;;;19.97;15.57;;;11.00;86.80;;;;;;5134362;27;20451;-64
2023/12/15 00:27:18;;;;;;;15.13;12.50;;;10.90;87.10;;;;;;5151209;27;20468;-64
2023/12/15 00:29:47;;;;;;;10.07;7.90;;;10.90;87.10;;;;;;5154234;27;20989;-64
2023/12/15 00:32:14;;;;;;;10.70;8.13;;;10.90;86.90;;;;;;5139778;27;20445;-64
2023/12/15 00:34:41;;;;;;;6.03;5.43;;;11.00;86.90;;;;;;5133376;27;20830;-64
2023/12/15 00:37:10;;;;;;;4.03;3.63;;;11.10;87.10;;;;;;5134852;27;20976;-63
2023/12/15 00:39:37;;;;;;;3.93;3.60;;;11.10;86.50;;;;;;5133458;27;20476;-64
2023/12/15 00:42:04;;;;;;;4.40;4.00;;;11.10;86.40;;;;;;5151800;27;20944;-63
2023/12/15 00:44:32;;;;;;;4.77;4.00;;;11.10;86.40;;;;;;5148873;27;20454;-64
2023/12/15 00:46:59;;;;;;;7.30;3.90;;;11.20;86.40;;;;;;5152226;27;20542;-64
2023/12/15 00:49:26;;;;;;;4.90;4.20;;;11.20;86.30;;;;;;5153687;27;20435;-64
2023/12/15 00:51:53;;;;;;;6.10;4.43;;;11.30;86.30;;;;;;5134556;27;20464;-64
2023/12/15 00:54:21;;;;;;;5.37;4.80;;;11.30;85.80;;;;;;5141820;27;20445;-64
2023/12/15 00:56:48;;;;;;;6.10;4.20;;;11.30;86.30;;;;;;5140718;27;20442;-64
2023/12/15 00:59:15;;;;;;;7.33;4.30;;;11.40;85.90;;;;;;5153608;27;20467;-64
2023/12/15 01:01:42;;;;;;;5.77;3.83;;;11.40;85.80;;;;;;5141775;27;21039;-64
2023/12/15 01:04:09;;;;;;;4.00;3.60;;;11.30;85.30;;;;;;5132952;27;21019;-65
2023/12/15 01:06:36;;;;;;;4.20;3.80;;;11.40;85.40;;;;;;5135227;27;20468;-64
2023/12/15 01:09:03;;;;;;;4.67;3.73;;;11.40;85.50;;;;;;5150491;27;20448;-66
2023/12/15 01:11:31;;;;;;;3.90;3.50;;;11.30;85.50;;;;;;5134247;27;20476;-64
2023/12/15 01:13:58;;;;;;;3.93;3.53;;;11.40;85.80;;;;;;5134903;27;20448;-64
2023/12/15 01:16:24;;;;;;;4.40;3.57;;;11.40;85.50;;;;;;5151650;27;20454;-65
2023/12/15 01:18:51;;;;;;;4.23;3.60;;;11.30;85.40;;;;;;5145591;27;20527;-65
2023/12/15 01:21:18;;;;;;;4.37;3.83;;;11.30;85.40;;;;;;5146846;27;20436;-65
2023/12/15 01:23:45;;;;;;;4.80;3.37;;;11.30;85.50;;;;;;5133224;27;20473;-64
2023/12/15 01:26:12;;;;;;;5.00;4.17;;;11.40;85.50;;;;;;5132399;27;20913;-64
2023/12/15 01:28:40;;;;;;;5.07;3.73;;;11.30;85.30;;;;;;5149419;27;20434;-63
2023/12/15 01:31:07;;;;;;;5.50;3.97;;;11.30;85.50;;;;;;5153028;27;20440;-64
2023/12/15 01:33:34;;;;;;;4.10;3.70;;;11.30;85.20;;;;;;5139460;27;20437;-64
2023/12/15 01:36:00;;;;;;;5.57;3.67;;;11.10;85.20;;;;;;5131918;27;20441;-64
2023/12/15 01:38:27;;;;;;;18.10;11.63;;;11.00;85.70;;;;;;5132584;27;20495;-64
2023/12/15 01:40:54;;;;;;;6.83;6.10;;;10.90;85.80;;;;;;5132351;27;20935;-64
2023/12/15 01:43:21;;;;;;;6.77;5.70;;;10.80;85.70;;;;;;5132222;27;20444;-63
2023/12/15 01:45:49;;;;;;;5.40;4.27;;;10.80;85.60;;;;;;5143060;27;20447;-64
2023/12/15 01:48:17;;;;;;;4.70;4.20;;;10.80;84.70;;;;;;5151082;27;20937;-64
2023/12/15 01:50:44;;;;;;;4.97;3.57;;;10.70;85.00;;;;;;5152304;27;20467;-64
2023/12/15 01:53:11;;;;;;;4.93;4.43;;;10.60;84.80;;;;;;5152276;27;20442;-64
2023/12/15 01:55:38;;;;;;;5.40;4.87;;;10.60;84.90;;;;;;5139967;27;20452;-64
2023/12/15 01:58:05;;;;;;;6.13;4.47;;;10.60;85.10;;;;;;5134739;27;20820;-65
2023/12/15 02:00:31;;;;;;;6.13;4.60;;;10.60;85.10;;;;;;5140393;27;20480;-65
2023/12/15 02:03:00;;;;;;;4.20;3.80;;;10.60;85.30;;;;;;5134553;27;20445;-64
2023/12/15 02:05:26;;;;;;;3.93;3.60;;;10.60;85.20;;;;;;5132411;27;20459;-64
2023/12/15 02:07:53;;;;;;;3.83;3.20;;;10.60;85.00;;;;;;5142731;27;20440;-63
2023/12/15 02:10:20;;;;;;;3.77;3.23;;;10.60;84.90;;;;;;5141179;27;20447;-64
2023/12/15 02:12:47;;;;;;;6.27;3.77;;;10.60;84.80;;;;;;5147540;27;20809;-64
2023/12/15 02:15:14;;;;;;;5.17;4.07;;;10.70;84.90;;;;;;5151292;27;20436;-64
2023/12/15 02:17:42;;;;;;;4.13;3.73;;;10.70;85.10;;;;;;5152068;27;20470;-64
2023/12/15 02:20:11;;;;;;;3.97;3.60;;;10.90;85.30;;;;;;5145573;27;20472;-64
2023/12/15 02:22:39;;;;;;;5.40;4.00;;;11.00;85.40;;;;;;5141400;27;20551;-64
2023/12/15 02:25:06;;;;;;;3.80;3.40;;;11.00;85.30;;;;;;5131515;27;20786;-64
2023/12/15 02:27:34;;;;;;;4.23;3.00;;;11.10;85.30;;;;;;5131905;27;20451;-64
2023/12/15 02:30:00;;;;;;;4.03;3.60;;;11.10;85.10;;;;;;5132517;27;20483;-64
2023/12/15 02:32:27;;;;;;;5.13;3.93;;;11.10;85.20;;;;;;5147779;27;20467;-64
2023/12/15 02:34:54;;;;;;;5.60;3.30;;;11.00;84.80;;;;;;5140421;27;20448;-64
2023/12/15 02:37:21;;;;;;;3.60;3.30;;;11.00;84.90;;;;;;5131141;27;20750;-64
2023/12/15 02:39:49;;;;;;;5.77;4.57;;;11.00;84.80;;;;;;5131231;27;20472;-64
2023/12/15 02:42:16;;;;;;;5.30;4.37;;;11.00;84.70;;;;;;5140539;27;20440;-64
2023/12/15 02:44:44;;;;;;;4.57;3.80;;;11.00;84.70;;;;;;5131496;27;20466;-64
2023/12/15 02:47:11;;;;;;;4.53;3.90;;;11.10;85.00;;;;;;5148289;27;20547;-64
2023/12/15 02:49:39;;;;;;;4.93;3.70;;;11.00;85.00;;;;;;5145150;27;20429;-64
2023/12/15 02:52:06;;;;;;;6.13;4.00;;;11.00;85.10;;;;;;5131129;27;20441;-64
2023/12/15 02:54:33;;;;;;;5.70;4.33;;;11.00;85.10;;;;;;5134277;27;20528;-64
2023/12/15 02:57:01;;;;;;;6.20;4.30;;;10.90;85.40;;;;;;5151379;27;20444;-64
2023/12/15 02:59:28;;;;;;;5.63;4.40;;;11.00;85.50;;;;;;5143601;27;20480;-63
2023/12/15 03:01:55;;;;;;;5.60;4.37;;;10.90;85.40;;;;;;5132957;27;20432;-64
2023/12/15 03:04:22;;;;;;;7.97;5.07;;;10.90;85.30;;;;;;5130799;27;20467;-64
2023/12/15 03:06:48;;;;;;;6.93;4.80;;;10.90;85.40;;;;;;5132742;27;20469;-64
2023/12/15 03:09:15;;;;;;;6.50;4.60;;;10.90;85.20;;;;;;5150959;27;20458;-64
2023/12/15 03:11:42;;;;;;;6.87;4.73;;;10.90;85.20;;;;;;5135564;27;20441;-64
2023/12/15 03:14:10;;;;;;;5.20;4.43;;;10.90;85.00;;;;;;5130555;27;20445;-64
2023/12/15 03:16:37;;;;;;;6.47;5.07;;;10.80;84.80;;;;;;5135617;27;20440;-64
2023/12/15 03:19:04;;;;;;;6.03;4.60;;;10.80;84.90;;;;;;5148593;27;20448;-64
2023/12/15 03:21:31;;;;;;;5.10;4.17;;;10.90;85.00;;;;;;5154474;27;20455;-62
2023/12/15 03:23:57;;;;;;;7.77;5.20;;;10.90;85.00;;;;;;5155188;27;20439;-63
2023/12/15 03:26:24;;;;;;;7.40;4.13;;;10.90;84.90;;;;;;5155356;27;20442;-63
2023/12/15 03:28:51;;;;;;;5.07;4.57;;;10.90;84.80;;;;;;5154700;27;20784;-64
2023/12/15 03:31:19;;;;;;;5.83;5.10;;;10.90;84.80;;;;;;5146298;27;20464;-64
2023/12/15 03:33:46;;;;;;;7.43;5.40;;;10.80;84.80;;;;;;5135431;27;20436;-64
2023/12/15 03:36:13;;;;;;;5.60;4.90;;;10.80;85.20;;;;;;5141315;27;20443;-63
2023/12/15 03:38:40;;;;;;;6.87;4.60;;;10.80;85.30;;;;;;5155386;27;20466;-63
2023/12/15 03:41:07;;;;;;;7.00;5.20;;;10.80;85.30;;;;;;5135991;27;20479;-65
2023/12/15 03:43:33;;;;;;;6.10;4.77;;;10.90;85.40;;;;;;5134833;27;20432;-64
2023/12/15 03:46:01;;;;;;;6.63;4.50;;;10.90;85.40;;;;;;5149063;27;20791;-63
2023/12/15 03:48:29;;;;;;;6.83;4.83;;;10.90;85.20;;;;;;5155442;27;20459;-64
2023/12/15 03:50:56;;;;;;;6.40;4.80;;;10.90;85.10;;;;;;5154076;27;20435;-64
2023/12/15 03:53:23;;;;;;;6.57;4.83;;;10.90;85.00;;;;;;5134589;27;20451;-64
2023/12/15 03:55:49;;;;;;;6.73;5.23;;;10.90;85.10;;;;;;5146959;27;21222;-64
2023/12/15 03:58:16;;;;;;;7.80;5.47;;;10.80;84.90;;;;;;5149789;27;20437;-64
2023/12/15 04:00:43;;;;;;;6.93;5.60;;;10.80;85.10;;;;;;5134005;27;20999;-63
2023/12/15 04:03:10;;;;;;;7.97;5.10;;;10.70;85.10;;;;;;5137831;27;20459;-63
2023/12/15 04:05:38;;;;;;;7.50;6.27;;;10.80;85.20;;;;;;5143227;27;20445;-63
2023/12/15 04:08:05;;;;;;;6.40;5.27;;;10.80;85.20;;;;;;5134118;27;20441;-63
2023/12/15 04:10:32;;;;;;;8.10;6.10;;;10.70;85.10;;;;;;5134152;27;20453;-64
2023/12/15 04:12:59;;;;;;;7.87;6.10;;;10.70;85.10;;;;;;5134075;27;21163;-63
2023/12/15 04:15:26;;;;;;;7.50;5.97;;;10.60;85.10;;;;;;5137112;27;20437;-63
2023/12/15 04:17:53;;;;;;;9.90;6.93;;;10.60;86.10;;;;;;5134560;27;20472;-63
2023/12/15 04:20:20;;;;;;;9.20;6.20;;;10.60;85.50;;;;;;5154789;27;20475;-63
2023/12/15 04:22:48;;;;;;;9.37;6.83;;;10.60;85.50;;;;;;5142896;27;20441;-63
2023/12/15 04:25:15;;;;;;;8.00;6.20;;;10.60;85.50;;;;;;5140888;27;20454;-63
2023/12/15 04:27:42;;;;;;;8.20;7.10;;;10.60;85.70;;;;;;5144420;27;20958;-64
2023/12/15 04:30:10;;;;;;;7.80;6.67;;;10.60;85.50;;;;;;5152994;27;20462;-64
2023/12/15 04:32:37;;;;;;;9.10;7.03;;;10.60;85.80;;;;;;5148138;27;20439;-64
2023/12/15 04:35:05;;;;;;;10.47;7.03;;;10.60;85.80;;;;;;5145627;27;20461;-63
2023/12/15 04:37:32;;;;;;;10.20;6.93;;;10.60;85.70;;;;;;5134574;27;20453;-65
2023/12/15 04:40:00;;;;;;;8.20;6.53;;;10.60;85.50;;;;;;5141810;27;20477;-63
2023/12/15 04:42:28;;;;;;;9.30;6.47;;;10.60;86.50;;;;;;5133494;27;20531;-63
2023/12/15 04:44:55;;;;;;;8.23;6.30;;;10.60;85.80;;;;;;5137550;27;20444;-63
2023/12/15 04:47:21;;;;;;;9.80;7.60;;;10.60;85.50;;;;;;5154246;27;20459;-63
2023/12/15 04:49:48;;;;;;;8.23;6.57;;;10.50;85.60;;;;;;5154400;27;20854;-63
2023/12/15 04:52:15;;;;;;;9.07;7.00;;;10.50;85.90;;;;;;5145008;27;20436;-64
2023/12/15 04:54:42;;;;;;;8.97;7.00;;;10.50;86.20;;;;;;5153141;27;20455;-64
2023/12/15 04:57:10;;;;;;;14.90;11.20;;;10.50;86.30;;;;;;5153422;27;20440;-64
2023/12/15 04:59:39;;;;;;;19.37;13.37;;;10.40;86.20;;;;;;5153726;27;20797;-63
2023/12/15 05:02:07;;;;;;;14.70;10.43;;;10.40;86.70;;;;;;5153899;27;21158;-63
2023/12/15 05:04:34;;;;;;;10.63;7.90;;;10.40;86.70;;;;;;5142267;27;20452;-64
2023/12/15 05:07:02;;;;;;;9.97;7.43;;;10.50;86.80;;;;;;5152618;27;20524;-63
2023/12/15 05:09:29;;;;;;;8.97;7.33;;;10.50;86.70;;;;;;5153625;27;20448;-64
2023/12/15 05:11:56;;;;;;;9.20;7.53;;;10.60;86.80;;;;;;5153641;27;20466;-63
2023/12/15 05:14:24;;;;;;;8.90;7.10;;;10.60;87.40;;;;;;5153131;27;21296;-64
2023/12/15 05:16:51;;;;;;;11.10;7.97;;;10.70;86.60;;;;;;5141635;27;20436;-63
2023/12/15 05:19:18;;;;;;;10.37;7.90;;;10.70;86.70;;;;;;5132682;27;20465;-65
2023/12/15 05:21:44;;;;;;;12.33;8.10;;;10.60;86.60;;;;;;5136397;27;20495;-64
2023/12/15 05:24:11;;;;;;;10.47;7.70;;;10.60;86.80;;;;;;5153225;27;20440;-64
2023/12/15 05:26:38;;;;;;;10.77;7.50;;;10.60;86.90;;;;;;5153425;27;20435;-63
2023/12/15 05:29:05;;;;;;;12.30;8.33;;;10.60;87.30;;;;;;5137639;27;20465;-63
2023/12/15 05:31:36;;;;;;;10.47;8.30;;;10.70;86.80;;;;;;5144476;27;20915;-63
2023/12/15 05:34:03;;;;;;;10.53;8.20;;;10.70;86.90;;;;;;5151230;27;20971;-63
2023/12/15 05:36:29;;;;;;;10.83;8.07;;;10.70;86.70;;;;;;5141131;27;20502;-64
2023/12/15 05:38:56;;;;;;;13.47;8.83;;;10.80;86.60;;;;;;5153204;27;20444;-64
2023/12/15 05:41:23;;;;;;;11.07;8.60;;;10.80;86.50;;;;;;5139754;27;20529;-64
2023/12/15 05:43:50;;;;;;;12.43;9.03;;;10.80;86.50;;;;;;5133255;27;20441;-63
2023/12/15 05:46:19;;;;;;;11.97;8.43;;;10.70;86.50;;;;;;5136738;27;20783;-63
2023/12/15 05:48:47;;;;;;;11.37;7.93;;;10.70;86.90;;;;;;5140018;27;20448;-64
2023/12/15 05:51:14;;;;;;;13.13;8.50;;;10.60;87.00;;;;;;5134426;27;20441;-63
2023/12/15 05:53:42;;;;;;;11.50;8.60;;;10.70;87.10;;;;;;5145406;27;20461;-63
2023/12/15 05:56:09;;;;;;;11.27;8.67;;;10.70;87.20;;;;;;5132032;27;20444;-65
2023/12/15 05:58:36;;;;;;;14.77;9.20;;;10.60;87.20;;;;;;5135088;27;20441;-64
2023/12/15 06:01:03;;;;;;;13.00;9.27;;;10.60;87.20;;;;;;5131977;27;20472;-64
2023/12/15 06:03:30;;;;;;;12.77;9.20;;;10.70;87.30;;;;;;5143534;27;20454;-64
2023/12/15 06:05:58;;;;;;;12.70;8.77;;;10.60;87.50;;;;;;5136055;27;20467;-64
2023/12/15 06:08:25;;;;;;;14.43;10.00;;;10.50;87.60;;;;;;5152290;27;20440;-64
2023/12/15 06:10:52;;;;;;;10.77;8.80;;;10.60;87.80;;;;;;5146140;27;20772;-64
2023/12/15 06:13:18;;;;;;;14.70;10.10;;;10.60;87.80;;;;;;5133845;27;20440;-63
2023/12/15 06:15:46;;;;;;;12.20;9.83;;;10.60;87.70;;;;;;5135065;27;20599;-64
2023/12/15 06:18:13;;;;;;;12.83;9.60;;;10.50;87.70;;;;;;5131675;27;20440;-64
2023/12/15 06:20:40;;;;;;;12.43;9.77;;;10.50;88.00;;;;;;5148560;27;20483;-64
2023/12/15 06:23:08;;;;;;;12.70;10.20;;;10.60;88.00;;;;;;5146243;27;20436;-64
2023/12/15 06:25:36;;;;;;;13.33;10.90;;;10.50;88.00;;;;;;5150564;27;20438;-64
2023/12/15 06:28:03;;;;;;;13.67;9.80;;;10.50;88.30;;;;;;5146138;27;20452;-63
2023/12/15 06:30:30;;;;;;;13.37;10.07;;;10.40;88.40;;;;;;5131944;27;20444;-64
2023/12/15 06:33:06;;;;;;;14.30;10.17;;;10.30;88.80;;;;;;5137716;27;20891;-64
2023/12/15 06:35:33;;;;;;;14.77;10.27;;;10.20;89.20;;;;;;5151577;27;20970;-63
2023/12/15 06:38:00;;;;;;;11.87;9.50;;;10.30;89.30;;;;;;5151492;27;20448;-65
2023/12/15 06:40:28;;;;;;;18.00;12.07;;;10.30;89.10;;;;;;5150657;27;20479;-64
2023/12/15 06:42:54;;;;;;;14.13;11.00;;;10.40;88.90;;;;;;5146116;27;20440;-64
2023/12/15 06:45:21;;;;;;;14.00;10.30;;;10.40;88.80;;;;;;5130957;27;20463;-67
2023/12/15 06:47:48;;;;;;;14.27;10.90;;;10.50;88.70;;;;;;5138733;27;20198;-65
2023/12/15 06:50:14;;;;;;;14.17;10.23;;;10.50;88.60;;;;;;5151659;27;20435;-65
2023/12/15 06:52:42;;;;;;;13.90;9.83;;;10.50;88.60;;;;;;5134252;27;20464;-65
2023/12/15 06:55:09;;;;;;;16.23;10.50;;;10.50;88.60;;;;;;5150772;27;20455;-66
2023/12/15 06:57:37;;;;;;;12.60;10.23;;;10.60;88.80;;;;;;5148102;27;20522;-65
2023/12/15 07:00:06;;;;;;;14.63;10.07;;;10.60;88.70;;;;;;5140114;27;20436;-65
2023/12/15 07:02:33;;;;;;;13.00;9.50;;;10.60;88.80;;;;;;5134726;27;21128;-65
2023/12/15 07:05:00;;;;;;;11.77;9.83;;;10.70;88.80;;;;;;5132393;27;20445;-64
2023/12/15 07:07:27;;;;;;;14.60;10.43;;;10.60;88.70;;;;;;5145768;27;20482;-64
2023/12/15 07:09:53;;;;;;;15.73;10.73;;;10.60;88.60;;;;;;5159222;27;20440;-65
2023/12/15 07:12:20;;;;;;;12.87;10.07;;;10.60;88.90;;;;;;5155547;27;20527;-65
2023/12/15 07:14:48;;;;;;;14.77;10.57;;;10.70;89.00;;;;;;5150116;27;20458;-65
2023/12/15 07:17:15;;;;;;;13.20;10.47;;;10.60;89.00;;;;;;5131860;28;20889;-64
2023/12/15 07:19:42;;;;;;;15.60;10.93;;;10.60;89.10;;;;;;5130891;27;20440;-64
2023/12/15 07:22:09;;;;;;;14.63;11.00;;;10.60;89.30;;;;;;5136815;27;20486;-66
2023/12/15 07:24:36;;;;;;;15.03;10.60;;;10.70;89.50;;;;;;5151091;27;20466;-65
2023/12/15 07:27:04;;;;;;;14.63;11.10;;;10.70;90.00;;;;;;5142664;27;20448;-64
2023/12/15 07:29:31;;;;;;;13.30;10.80;;;10.70;89.40;;;;;;5135207;27;20451;-64
2023/12/15 07:31:59;;;;;;;18.07;11.20;;;10.70;89.50;;;;;;5151234;27;20451;-65
2023/12/15 07:34:26;;;;;;;18.00;11.90;;;10.70;89.70;;;;;;5150902;27;20451;-65
2023/12/15 07:36:53;;;;;;;15.13;11.27;;;10.60;89.70;;;;;;5149599;27;20880;-66
2023/12/15 07:39:21;;;;;;;13.23;10.23;;;10.60;89.70;;;;;;5144281;27;20446;-65
2023/12/15 07:41:49;;;;;;;13.97;10.27;;;10.70;89.80;;;;;;5148199;27;20475;-65
2023/12/15 07:44:16;;;;;;;14.23;10.40;;;10.70;89.70;;;;;;5137076;27;20452;-65
2023/12/15 07:46:43;;;;;;;17.87;10.90;;;10.70;89.70;;;;;;5140104;27;20998;-65
2023/12/15 07:49:11;;;;;;;14.13;10.57;;;10.70;90.10;;;;;;5145134;27;20542;-65
2023/12/15 07:51:40;;;;;;;13.87;9.97;;;10.70;89.60;;;;;;5139748;27;20432;-66
2023/12/15 07:54:07;;;;;;;15.30;10.23;;;10.80;89.60;;;;;;5148111;27;20520;-65
2023/12/15 07:56:34;;;;;;;14.30;9.90;;;10.80;89.50;;;;;;5150772;27;20556;-65
2023/12/15 07:59:01;;;;;;;12.77;10.17;;;10.80;89.40;;;;;;5147913;27;20439;-65
2023/12/15 08:01:28;;;;;;;15.47;10.97;;;10.90;89.40;;;;;;5140859;27;20834;-65
2023/12/15 08:03:55;;;;;;;13.03;10.17;;;10.90;89.30;;;;;;5135716;27;20463;-65
2023/12/15 08:06:23;;;;;;;13.77;11.00;;;10.90;89.40;;;;;;5132990;27;20472;-65
2023/12/15 08:08:51;;;;;;;14.13;10.13;;;10.90;89.20;;;;;;5134108;27;20439;-65
2023/12/15 08:11:19;;;;;;;13.53;9.53;;;11.00;89.20;;;;;;5135019;27;20532;-65
2023/12/15 08:13:46;;;;;;;11.90;9.57;;;11.00;89.20;;;;;;5145789;27;20538;-65
2023/12/15 08:16:13;;;;;;;13.27;9.90;;;11.00;89.10;;;;;;5154565;27;20633;-65
2023/12/15 08:18:41;;;;;;;14.37;9.27;;;11.10;89.20;;;;;;5152270;27;20753;-67
2023/12/15 08:21:08;;;;;;;14.33;10.17;;;11.00;88.90;;;;;;5118017;27;20558;-65
2023/12/15 08:23:36;;;;;;;14.17;10.80;;;10.90;89.10;;;;;;5135938;27;20452;-65
2023/12/15 08:26:03;;;;;;;12.17;9.77;;;10.90;89.50;;;;;;5133729;27;20436;-65
2023/12/15 08:28:29;;;;;;;19.03;10.53;;;10.80;89.50;;;;;;5153465;27;20869;-65
2023/12/15 08:30:56;;;;;;;14.27;9.93;;;10.70;90.00;;;;;;5154148;27;20448;-65
2023/12/15 08:33:23;;;;;;;12.83;10.37;;;10.70;90.40;;;;;;5154337;27;20815;-65
2023/12/15 08:35:50;;;;;;;13.33;10.37;;;10.60;90.10;;;;;;5153961;27;20452;-65
2023/12/15 08:38:17;;;;;;;11.27;9.77;;;10.70;90.20;;;;;;5151874;27;20821;-65
2023/12/15 08:40:45;;;;;;;14.23;10.00;;;10.70;90.20;;;;;;5153667;27;20496;-65
2023/12/15 08:43:13;;;;;;;13.13;10.33;;;10.70;90.30;;;;;;5154109;27;20527;-65
2023/12/15 08:45:40;;;;;;;15.23;10.20;;;10.70;90.40;;;;;;5140740;27;20445;-65
2023/12/15 08:48:08;;;;;;;13.13;10.43;;;10.70;90.40;;;;;;5137832;27;20451;-64
2023/12/15 08:50:34;;;;;;;14.67;10.07;;;10.70;90.40;;;;;;5133442;27;20528;-65
2023/12/15 08:53:02;;;;;;;14.07;10.37;;;10.70;90.30;;;;;;5133302;27;20457;-65
2023/12/15 08:55:29;;;;;;;14.77;10.10;;;10.70;90.20;;;;;;5142964;27;20480;-65
2023/12/15 08:57:57;;;;;;;13.47;9.30;;;10.80;90.40;;;;;;5153163;27;20439;-65
2023/12/15 09:00:24;;;;;;;15.10;10.03;;;10.70;90.20;;;;;;5153865;27;20455;-65
2023/12/15 09:02:53;;;;;;;13.13;10.20;;;10.70;90.20;;;;;;5151142;27;20489;-65
2023/12/15 09:05:23;;;;;;;14.80;10.67;;;10.80;90.30;;;;;;5132831;27;20452;-65
2023/12/15 09:07:50;;;;;;;17.53;10.87;;;10.80;90.20;;;;;;5143978;27;20448;-65
2023/12/15 09:10:18;;;;;;;13.73;9.33;;;10.70;90.20;;;;;;5153183;27;20469;-65
2023/12/15 09:12:45;;;;;;;13.27;10.17;;;10.80;90.20;;;;;;5153546;27;20454;-65
2023/12/15 09:15:13;;;;;;;12.77;9.40;;;10.90;90.30;;;;;;5153390;27;20464;-65
2023/12/15 09:17:40;;;;;;;11.63;8.90;;;10.90;90.10;;;;;;5152847;27;20527;-65
2023/12/15 09:20:08;;;;;;;11.17;8.77;;;11.00;90.00;;;;;;5150319;27;20527;-65
2023/12/15 09:22:35;;;;;;;13.13;9.87;;;11.00;89.60;;;;;;5143289;27;20529;-65
2023/12/15 09:25:02;;;;;;;10.53;9.40;;;11.10;89.70;;;;;;5132699;27;20847;-65
2023/12/15 09:27:29;;;;;;;11.60;8.80;;;11.10;89.40;;;;;;5132528;27;20494;-65
2023/12/15 09:29:56;;;;;;;15.37;9.30;;;11.10;89.70;;;;;;5132695;27;20448;-65
2023/12/15 09:32:24;;;;;;;14.63;8.47;;;11.10;89.30;;;;;;5132252;27;20446;-66
2023/12/15 09:34:51;;;;;;;10.77;8.50;;;11.10;89.30;;;;;;5132317;27;20456;-65
2023/12/15 09:37:18;;;;;;;12.10;9.23;;;11.10;89.00;;;;;;5133373;27;20521;-65
2023/12/15 09:39:45;;;;;;;11.37;8.40;;;11.20;89.00;;;;;;5139716;27;20513;-65
2023/12/15 09:42:12;;;;;;;10.50;7.87;;;11.30;89.00;;;;;;5153369;27;20566;-65
2023/12/15 09:44:39;;;;;;;11.40;7.70;;;11.30;88.70;;;;;;5153716;27;20475;-65
2023/12/15 09:47:08;;;;;;;9.20;7.10;;;11.50;88.50;;;;;;5153111;27;20541;-65
2023/12/15 09:49:36;;;;;;;10.93;6.60;;;11.60;87.60;;;;;;5151901;27;20436;-66
